sensor_id;sensor_type;location;lat;lon;timestamp;P1;durP1;ratioP1;P2;durP2;ratioP2
70829;SDS011;58451;51.550;7.208;2024-01-30T00:00:52;11.30;;;4.70;;
70829;SDS011;58451;51.550;7.208;2024-01-30T00:02:24;11.40;;;5.40;;
70829;SDS011;58451;51.550;7.208;2024-01-30T00:03:57;10.90;;;5.20;;
70829;SDS011;58451;51.550;7.208;2024-01-30T00:05:28;16.00;;;5.80;;
70829;SDS011;58451;51.550;7.208;2024-01-30T00:07:00;13.40;;;5.50;;
70829;SDS011;58451;51.550;7.208;2024-01-30T00:08:32;12.50;;;5.60;;
70829;SDS011;58451;51.550;7.208;2024-01-30T00:10:04;12.50;;;5.50;;
70829;SDS011;58451;51.550;7.208;2024-01-30T00:11:37;12.80;;;5.80;;
70829;SDS011;58451;51.550;7.208;2024-01-30T00:13:09;12.80;;;5.50;;
70829;SDS011;58451;51.550;7.208;2024-01-30T00:14:42;11.50;;;4.90;;
70829;SDS011;58451;51.550;7.208;2024-01-30T00:16:25;12.00;;;5.60;;
70829;SDS011;58451;51.550;7.208;2024-01-30T00:17:58;12.30;;;5.80;;
70829;SDS011;58451;51.550;7.208;2024-01-30T00:19:30;11.30;;;5.40;;
70829;SDS011;58451;51.550;7.208;2024-01-30T00:21:02;13.00;;;5.60;;
70829;SDS011;58451;51.550;7.208;2024-01-30T00:22:41;13.90;;;5.80;;
70829;SDS011;58451;51.550;7.208;2024-01-30T00:24:13;13.80;;;6.00;;
70829;SDS011;58451;51.550;7.208;2024-01-30T00:25:45;13.80;;;5.70;;
70829;SDS011;58451;51.550;7.208;2024-01-30T00:27:17;14.80;;;6.10;;
70829;SDS011;58451;51.550;7.208;2024-01-30T00:28:49;13.40;;;5.80;;
70829;SDS011;58451;51.550;7.208;2024-01-30T00:30:21;12.50;;;5.90;;
70829;SDS011;58451;51.550;7.208;2024-01-30T00:31:52;13.90;;;5.70;;
70829;SDS011;58451;51.550;7.208;2024-01-30T00:33:27;13.80;;;5.70;;
70829;SDS011;58451;51.550;7.208;2024-01-30T00:34:59;15.50;;;6.10;;
70829;SDS011;58451;51.550;7.208;2024-01-30T00:36:31;11.40;;;5.10;;
70829;SDS011;58451;51.550;7.208;2024-01-30T00:38:03;13.50;;;5.80;;
70829;SDS011;58451;51.550;7.208;2024-01-30T00:39:35;12.40;;;5.70;;
70829;SDS011;58451;51.550;7.208;2024-01-30T00:41:08;16.00;;;6.40;;
70829;SDS011;58451;51.550;7.208;2024-01-30T00:42:43;11.50;;;5.50;;
70829;SDS011;58451;51.550;7.208;2024-01-30T00:44:15;13.40;;;5.80;;
70829;SDS011;58451;51.550;7.208;2024-01-30T00:45:55;14.00;;;6.40;;
70829;SDS011;58451;51.550;7.208;2024-01-30T00:47:28;13.30;;;5.70;;
70829;SDS011;58451;51.550;7.208;2024-01-30T00:49:00;13.60;;;6.20;;
70829;SDS011;58451;51.550;7.208;2024-01-30T00:50:32;13.80;;;6.20;;
70829;SDS011;58451;51.550;7.208;2024-01-30T00:52:04;13.70;;;6.40;;
70829;SDS011;58451;51.550;7.208;2024-01-30T00:53:37;13.70;;;5.80;;
70829;SDS011;58451;51.550;7.208;2024-01-30T00:55:08;15.60;;;6.00;;
70829;SDS011;58451;51.550;7.208;2024-01-30T00:56:40;12.70;;;6.20;;
70829;SDS011;58451;51.550;7.208;2024-01-30T00:58:12;14.20;;;6.00;;
70829;SDS011;58451;51.550;7.208;2024-01-30T00:59:44;14.20;;;6.40;;
70829;SDS011;58451;51.550;7.208;2024-01-30T01:01:16;13.70;;;6.20;;
70829;SDS011;58451;51.550;7.208;2024-01-30T01:02:48;14.50;;;6.40;;
70829;SDS011;58451;51.550;7.208;2024-01-30T01:04:20;13.90;;;6.30;;
70829;SDS011;58451;51.550;7.208;2024-01-30T01:05:53;13.30;;;5.70;;
70829;SDS011;58451;51.550;7.208;2024-01-30T01:07:24;14.10;;;6.60;;
70829;SDS011;58451;51.550;7.208;2024-01-30T01:08:56;13.30;;;6.10;;
70829;SDS011;58451;51.550;7.208;2024-01-30T01:10:28;12.90;;;5.50;;
70829;SDS011;58451;51.550;7.208;2024-01-30T01:12:00;14.90;;;6.50;;
70829;SDS011;58451;51.550;7.208;2024-01-30T01:13:34;12.00;;;5.70;;
70829;SDS011;58451;51.550;7.208;2024-01-30T01:15:06;13.90;;;5.90;;
70829;SDS011;58451;51.550;7.208;2024-01-30T01:16:41;11.50;;;5.10;;
70829;SDS011;58451;51.550;7.208;2024-01-30T01:18:15;13.00;;;4.90;;
70829;SDS011;58451;51.550;7.208;2024-01-30T01:19:47;14.70;;;6.10;;
70829;SDS011;58451;51.550;7.208;2024-01-30T01:21:19;12.70;;;5.70;;
70829;SDS011;58451;51.550;7.208;2024-01-30T01:22:51;13.60;;;6.00;;
70829;SDS011;58451;51.550;7.208;2024-01-30T01:24:24;14.40;;;6.30;;
70829;SDS011;58451;51.550;7.208;2024-01-30T01:25:56;13.70;;;6.50;;
70829;SDS011;58451;51.550;7.208;2024-01-30T01:27:31;15.00;;;6.30;;
70829;SDS011;58451;51.550;7.208;2024-01-30T01:29:04;13.70;;;6.40;;
70829;SDS011;58451;51.550;7.208;2024-01-30T01:30:41;13.60;;;6.60;;
70829;SDS011;58451;51.550;7.208;2024-01-30T01:32:13;15.70;;;6.10;;
70829;SDS011;58451;51.550;7.208;2024-01-30T01:33:45;14.10;;;6.40;;
70829;SDS011;58451;51.550;7.208;2024-01-30T01:35:17;13.40;;;6.30;;
70829;SDS011;58451;51.550;7.208;2024-01-30T01:36:50;14.50;;;6.10;;
70829;SDS011;58451;51.550;7.208;2024-01-30T01:38:22;14.70;;;6.20;;
70829;SDS011;58451;51.550;7.208;2024-01-30T01:39:54;13.10;;;5.70;;
70829;SDS011;58451;51.550;7.208;2024-01-30T01:41:30;18.80;;;6.90;;
70829;SDS011;58451;51.550;7.208;2024-01-30T01:43:03;14.20;;;6.30;;
70829;SDS011;58451;51.550;7.208;2024-01-30T01:44:36;14.80;;;6.50;;
70829;SDS011;58451;51.550;7.208;2024-01-30T01:46:08;15.20;;;6.90;;
70829;SDS011;58451;51.550;7.208;2024-01-30T01:47:41;16.00;;;6.40;;
70829;SDS011;58451;51.550;7.208;2024-01-30T01:49:13;14.90;;;6.50;;
70829;SDS011;58451;51.550;7.208;2024-01-30T01:50:46;13.30;;;5.90;;
70829;SDS011;58451;51.550;7.208;2024-01-30T01:52:18;15.40;;;6.30;;
70829;SDS011;58451;51.550;7.208;2024-01-30T01:53:50;14.40;;;6.20;;
70829;SDS011;58451;51.550;7.208;2024-01-30T01:55:22;16.80;;;6.40;;
70829;SDS011;58451;51.550;7.208;2024-01-30T01:56:56;13.50;;;6.20;;
70829;SDS011;58451;51.550;7.208;2024-01-30T01:58:29;16.00;;;6.80;;
70829;SDS011;58451;51.550;7.208;2024-01-30T02:00:01;16.60;;;6.60;;
70829;SDS011;58451;51.550;7.208;2024-01-30T02:01:39;13.10;;;6.40;;
70829;SDS011;58451;51.550;7.208;2024-01-30T02:03:17;13.20;;;6.20;;
70829;SDS011;58451;51.550;7.208;2024-01-30T02:04:50;12.80;;;5.40;;
70829;SDS011;58451;51.550;7.208;2024-01-30T02:06:22;13.90;;;5.70;;
70829;SDS011;58451;51.550;7.208;2024-01-30T02:07:54;13.40;;;6.50;;
70829;SDS011;58451;51.550;7.208;2024-01-30T02:09:27;20.40;;;6.50;;
70829;SDS011;58451;51.550;7.208;2024-01-30T02:10:59;13.50;;;6.00;;
70829;SDS011;58451;51.550;7.208;2024-01-30T02:12:31;14.40;;;6.40;;
70829;SDS011;58451;51.550;7.208;2024-01-30T02:14:04;15.40;;;5.90;;
70829;SDS011;58451;51.550;7.208;2024-01-30T02:15:36;13.20;;;5.90;;
70829;SDS011;58451;51.550;7.208;2024-01-30T02:17:08;13.50;;;6.20;;
70829;SDS011;58451;51.550;7.208;2024-01-30T02:18:40;12.00;;;5.70;;
70829;SDS011;58451;51.550;7.208;2024-01-30T02:20:17;12.80;;;6.00;;
70829;SDS011;58451;51.550;7.208;2024-01-30T02:21:49;13.30;;;6.60;;
70829;SDS011;58451;51.550;7.208;2024-01-30T02:23:24;13.20;;;5.40;;
70829;SDS011;58451;51.550;7.208;2024-01-30T02:24:59;15.20;;;6.60;;
70829;SDS011;58451;51.550;7.208;2024-01-30T02:26:30;14.30;;;6.30;;
70829;SDS011;58451;51.550;7.208;2024-01-30T02:28:02;13.30;;;5.40;;
70829;SDS011;58451;51.550;7.208;2024-01-30T02:29:34;13.90;;;6.00;;
70829;SDS011;58451;51.550;7.208;2024-01-30T02:31:07;14.50;;;6.70;;
70829;SDS011;58451;51.550;7.208;2024-01-30T02:32:39;13.00;;;6.00;;
70829;SDS011;58451;51.550;7.208;2024-01-30T02:34:10;13.20;;;6.20;;
70829;SDS011;58451;51.550;7.208;2024-01-30T02:35:43;13.80;;;5.80;;
70829;SDS011;58451;51.550;7.208;2024-01-30T02:37:16;13.00;;;6.00;;
70829;SDS011;58451;51.550;7.208;2024-01-30T02:38:50;15.20;;;6.60;;
70829;SDS011;58451;51.550;7.208;2024-01-30T02:40:26;12.10;;;6.00;;
70829;SDS011;58451;51.550;7.208;2024-01-30T02:42:00;13.10;;;6.10;;
70829;SDS011;58451;51.550;7.208;2024-01-30T02:43:32;13.60;;;6.10;;
70829;SDS011;58451;51.550;7.208;2024-01-30T02:45:04;15.20;;;6.50;;
70829;SDS011;58451;51.550;7.208;2024-01-30T02:46:37;13.30;;;6.30;;
70829;SDS011;58451;51.550;7.208;2024-01-30T02:48:09;16.60;;;6.20;;
70829;SDS011;58451;51.550;7.208;2024-01-30T02:49:41;14.80;;;6.50;;
70829;SDS011;58451;51.550;7.208;2024-01-30T02:51:13;14.70;;;6.40;;
70829;SDS011;58451;51.550;7.208;2024-01-30T02:52:44;13.60;;;5.90;;
70829;SDS011;58451;51.550;7.208;2024-01-30T02:54:16;14.40;;;6.40;;
70829;SDS011;58451;51.550;7.208;2024-01-30T02:55:48;13.10;;;6.10;;
70829;SDS011;58451;51.550;7.208;2024-01-30T02:57:20;14.00;;;6.00;;
70829;SDS011;58451;51.550;7.208;2024-01-30T02:58:52;12.00;;;5.80;;
70829;SDS011;58451;51.550;7.208;2024-01-30T03:00:24;13.40;;;5.90;;
70829;SDS011;58451;51.550;7.208;2024-01-30T03:01:56;14.30;;;5.80;;
70829;SDS011;58451;51.550;7.208;2024-01-30T03:03:28;14.80;;;5.90;;
70829;SDS011;58451;51.550;7.208;2024-01-30T03:05:00;13.90;;;5.70;;
70829;SDS011;58451;51.550;7.208;2024-01-30T03:06:32;13.10;;;5.90;;
70829;SDS011;58451;51.550;7.208;2024-01-30T03:08:05;15.40;;;6.10;;
70829;SDS011;58451;51.550;7.208;2024-01-30T03:09:37;12.30;;;5.50;;
70829;SDS011;58451;51.550;7.208;2024-01-30T03:11:09;13.90;;;6.00;;
70829;SDS011;58451;51.550;7.208;2024-01-30T03:12:41;11.50;;;5.40;;
70829;SDS011;58451;51.550;7.208;2024-01-30T03:14:13;15.90;;;6.70;;
70829;SDS011;58451;51.550;7.208;2024-01-30T03:15:47;12.20;;;5.60;;
70829;SDS011;58451;51.550;7.208;2024-01-30T03:17:19;15.40;;;6.40;;
70829;SDS011;58451;51.550;7.208;2024-01-30T03:18:51;16.40;;;6.40;;
70829;SDS011;58451;51.550;7.208;2024-01-30T03:20:23;12.20;;;5.50;;
70829;SDS011;58451;51.550;7.208;2024-01-30T03:21:55;13.10;;;5.60;;
70829;SDS011;58451;51.550;7.208;2024-01-30T03:23:27;14.20;;;6.00;;
70829;SDS011;58451;51.550;7.208;2024-01-30T03:24:59;13.80;;;5.40;;
70829;SDS011;58451;51.550;7.208;2024-01-30T03:26:31;15.10;;;6.30;;
70829;SDS011;58451;51.550;7.208;2024-01-30T03:28:03;15.20;;;5.60;;
70829;SDS011;58451;51.550;7.208;2024-01-30T03:29:35;14.40;;;6.00;;
70829;SDS011;58451;51.550;7.208;2024-01-30T03:31:07;14.00;;;5.80;;
70829;SDS011;58451;51.550;7.208;2024-01-30T03:32:39;12.50;;;5.70;;
70829;SDS011;58451;51.550;7.208;2024-01-30T03:34:11;13.00;;;5.50;;
70829;SDS011;58451;51.550;7.208;2024-01-30T03:35:43;13.60;;;5.90;;
70829;SDS011;58451;51.550;7.208;2024-01-30T03:37:14;13.90;;;5.70;;
70829;SDS011;58451;51.550;7.208;2024-01-30T03:38:46;12.20;;;5.60;;
70829;SDS011;58451;51.550;7.208;2024-01-30T03:40:18;13.10;;;5.50;;
70829;SDS011;58451;51.550;7.208;2024-01-30T03:41:50;14.30;;;5.40;;
70829;SDS011;58451;51.550;7.208;2024-01-30T03:43:22;14.40;;;6.30;;
70829;SDS011;58451;51.550;7.208;2024-01-30T03:44:53;13.10;;;5.40;;
70829;SDS011;58451;51.550;7.208;2024-01-30T03:46:26;13.00;;;5.90;;
70829;SDS011;58451;51.550;7.208;2024-01-30T03:47:58;12.30;;;5.70;;
70829;SDS011;58451;51.550;7.208;2024-01-30T03:49:30;12.70;;;6.20;;
70829;SDS011;58451;51.550;7.208;2024-01-30T03:51:02;13.90;;;6.10;;
70829;SDS011;58451;51.550;7.208;2024-01-30T03:52:34;12.70;;;5.10;;
70829;SDS011;58451;51.550;7.208;2024-01-30T03:54:06;14.70;;;5.90;;
70829;SDS011;58451;51.550;7.208;2024-01-30T03:55:38;12.70;;;5.10;;
70829;SDS011;58451;51.550;7.208;2024-01-30T03:57:10;12.20;;;5.40;;
70829;SDS011;58451;51.550;7.208;2024-01-30T03:58:43;12.20;;;5.60;;
70829;SDS011;58451;51.550;7.208;2024-01-30T04:00:15;14.10;;;5.90;;
70829;SDS011;58451;51.550;7.208;2024-01-30T04:01:50;12.40;;;5.40;;
70829;SDS011;58451;51.550;7.208;2024-01-30T04:03:23;12.80;;;5.70;;
70829;SDS011;58451;51.550;7.208;2024-01-30T04:04:55;13.80;;;6.10;;
70829;SDS011;58451;51.550;7.208;2024-01-30T04:06:27;13.40;;;5.70;;
70829;SDS011;58451;51.550;7.208;2024-01-30T04:07:59;15.40;;;5.30;;
70829;SDS011;58451;51.550;7.208;2024-01-30T04:09:31;14.10;;;6.00;;
70829;SDS011;58451;51.550;7.208;2024-01-30T04:11:04;13.30;;;5.70;;
70829;SDS011;58451;51.550;7.208;2024-01-30T04:12:42;12.00;;;5.00;;
70829;SDS011;58451;51.550;7.208;2024-01-30T04:14:14;13.90;;;5.50;;
70829;SDS011;58451;51.550;7.208;2024-01-30T04:15:47;13.20;;;5.20;;
70829;SDS011;58451;51.550;7.208;2024-01-30T04:17:19;12.90;;;5.90;;
70829;SDS011;58451;51.550;7.208;2024-01-30T04:18:52;12.10;;;5.30;;
70829;SDS011;58451;51.550;7.208;2024-01-30T04:20:24;12.40;;;5.50;;
70829;SDS011;58451;51.550;7.208;2024-01-30T04:21:57;14.00;;;5.70;;
70829;SDS011;58451;51.550;7.208;2024-01-30T04:23:29;15.70;;;5.90;;
70829;SDS011;58451;51.550;7.208;2024-01-30T04:25:01;13.30;;;5.50;;
70829;SDS011;58451;51.550;7.208;2024-01-30T04:26:34;13.70;;;6.40;;
70829;SDS011;58451;51.550;7.208;2024-01-30T04:28:06;14.40;;;5.70;;
70829;SDS011;58451;51.550;7.208;2024-01-30T04:29:40;14.10;;;6.30;;
70829;SDS011;58451;51.550;7.208;2024-01-30T04:31:12;13.70;;;6.80;;
70829;SDS011;58451;51.550;7.208;2024-01-30T04:32:44;14.00;;;5.80;;
70829;SDS011;58451;51.550;7.208;2024-01-30T04:34:16;13.20;;;6.20;;
70829;SDS011;58451;51.550;7.208;2024-01-30T04:35:48;12.60;;;5.40;;
70829;SDS011;58451;51.550;7.208;2024-01-30T04:37:20;15.10;;;5.90;;
70829;SDS011;58451;51.550;7.208;2024-01-30T04:38:51;13.40;;;5.70;;
70829;SDS011;58451;51.550;7.208;2024-01-30T04:40:23;13.00;;;5.20;;
70829;SDS011;58451;51.550;7.208;2024-01-30T04:41:56;13.90;;;5.10;;
70829;SDS011;58451;51.550;7.208;2024-01-30T04:43:28;11.90;;;5.50;;
70829;SDS011;58451;51.550;7.208;2024-01-30T04:45:00;13.60;;;5.20;;
70829;SDS011;58451;51.550;7.208;2024-01-30T04:46:31;12.30;;;5.20;;
70829;SDS011;58451;51.550;7.208;2024-01-30T04:48:05;13.50;;;5.50;;
70829;SDS011;58451;51.550;7.208;2024-01-30T04:49:41;12.00;;;5.50;;
70829;SDS011;58451;51.550;7.208;2024-01-30T04:51:13;12.50;;;5.10;;
70829;SDS011;58451;51.550;7.208;2024-01-30T04:52:44;11.60;;;5.30;;
70829;SDS011;58451;51.550;7.208;2024-01-30T04:54:16;15.40;;;5.50;;
70829;SDS011;58451;51.550;7.208;2024-01-30T04:55:50;12.20;;;5.00;;
70829;SDS011;58451;51.550;7.208;2024-01-30T04:57:22;13.70;;;5.70;;
70829;SDS011;58451;51.550;7.208;2024-01-30T04:59:00;15.20;;;5.50;;
70829;SDS011;58451;51.550;7.208;2024-01-30T05:00:33;12.50;;;5.70;;
70829;SDS011;58451;51.550;7.208;2024-01-30T05:02:05;10.90;;;5.00;;
70829;SDS011;58451;51.550;7.208;2024-01-30T05:03:37;12.50;;;5.80;;
70829;SDS011;58451;51.550;7.208;2024-01-30T05:05:09;12.10;;;5.60;;
70829;SDS011;58451;51.550;7.208;2024-01-30T05:06:42;15.10;;;5.40;;
70829;SDS011;58451;51.550;7.208;2024-01-30T05:08:14;12.80;;;5.10;;
70829;SDS011;58451;51.550;7.208;2024-01-30T05:09:46;12.30;;;5.60;;
70829;SDS011;58451;51.550;7.208;2024-01-30T05:11:19;12.00;;;4.70;;
70829;SDS011;58451;51.550;7.208;2024-01-30T05:12:51;12.00;;;4.80;;
70829;SDS011;58451;51.550;7.208;2024-01-30T05:14:23;10.90;;;5.10;;
70829;SDS011;58451;51.550;7.208;2024-01-30T05:15:55;12.00;;;5.20;;
70829;SDS011;58451;51.550;7.208;2024-01-30T05:17:27;12.30;;;5.20;;
70829;SDS011;58451;51.550;7.208;2024-01-30T05:18:59;11.20;;;5.10;;
70829;SDS011;58451;51.550;7.208;2024-01-30T05:20:34;13.10;;;5.30;;
70829;SDS011;58451;51.550;7.208;2024-01-30T05:22:06;10.60;;;4.40;;
70829;SDS011;58451;51.550;7.208;2024-01-30T05:23:38;12.40;;;5.00;;
70829;SDS011;58451;51.550;7.208;2024-01-30T05:25:10;12.10;;;5.40;;
70829;SDS011;58451;51.550;7.208;2024-01-30T05:26:43;15.60;;;5.60;;
70829;SDS011;58451;51.550;7.208;2024-01-30T05:28:14;14.30;;;5.60;;
70829;SDS011;58451;51.550;7.208;2024-01-30T05:29:46;14.20;;;5.60;;
70829;SDS011;58451;51.550;7.208;2024-01-30T05:31:18;13.00;;;5.20;;
70829;SDS011;58451;51.550;7.208;2024-01-30T05:32:50;14.20;;;5.50;;
70829;SDS011;58451;51.550;7.208;2024-01-30T05:34:22;13.50;;;5.80;;
70829;SDS011;58451;51.550;7.208;2024-01-30T05:35:54;12.80;;;5.60;;
70829;SDS011;58451;51.550;7.208;2024-01-30T05:37:26;12.20;;;5.00;;
70829;SDS011;58451;51.550;7.208;2024-01-30T05:38:58;13.80;;;5.70;;
70829;SDS011;58451;51.550;7.208;2024-01-30T05:40:30;11.90;;;5.40;;
70829;SDS011;58451;51.550;7.208;2024-01-30T05:42:02;12.80;;;5.70;;
70829;SDS011;58451;51.550;7.208;2024-01-30T05:43:34;11.00;;;5.20;;
70829;SDS011;58451;51.550;7.208;2024-01-30T05:45:06;12.70;;;5.20;;
70829;SDS011;58451;51.550;7.208;2024-01-30T05:46:39;13.70;;;5.50;;
70829;SDS011;58451;51.550;7.208;2024-01-30T05:48:11;13.50;;;5.70;;
70829;SDS011;58451;51.550;7.208;2024-01-30T05:49:43;15.60;;;6.10;;
70829;SDS011;58451;51.550;7.208;2024-01-30T05:51:15;11.20;;;5.00;;
70829;SDS011;58451;51.550;7.208;2024-01-30T05:52:47;14.20;;;6.20;;
70829;SDS011;58451;51.550;7.208;2024-01-30T05:54:18;12.00;;;5.70;;
70829;SDS011;58451;51.550;7.208;2024-01-30T05:55:50;13.50;;;5.90;;
70829;SDS011;58451;51.550;7.208;2024-01-30T05:57:22;14.20;;;5.60;;
70829;SDS011;58451;51.550;7.208;2024-01-30T05:58:56;16.00;;;6.10;;
70829;SDS011;58451;51.550;7.208;2024-01-30T06:00:27;15.50;;;5.30;;
70829;SDS011;58451;51.550;7.208;2024-01-30T06:01:59;13.40;;;5.60;;
70829;SDS011;58451;51.550;7.208;2024-01-30T06:03:31;14.50;;;5.90;;
70829;SDS011;58451;51.550;7.208;2024-01-30T06:05:03;14.60;;;6.00;;
70829;SDS011;58451;51.550;7.208;2024-01-30T06:06:35;12.00;;;5.30;;
70829;SDS011;58451;51.550;7.208;2024-01-30T06:08:07;15.00;;;5.90;;
70829;SDS011;58451;51.550;7.208;2024-01-30T06:09:39;13.60;;;5.20;;
70829;SDS011;58451;51.550;7.208;2024-01-30T06:11:14;14.10;;;5.70;;
70829;SDS011;58451;51.550;7.208;2024-01-30T06:12:46;13.20;;;5.40;;
70829;SDS011;58451;51.550;7.208;2024-01-30T06:14:23;13.40;;;5.70;;
70829;SDS011;58451;51.550;7.208;2024-01-30T06:15:55;13.80;;;5.80;;
70829;SDS011;58451;51.550;7.208;2024-01-30T06:17:27;11.10;;;5.40;;
70829;SDS011;58451;51.550;7.208;2024-01-30T06:19:00;14.50;;;5.80;;
70829;SDS011;58451;51.550;7.208;2024-01-30T06:20:32;13.10;;;5.50;;
70829;SDS011;58451;51.550;7.208;2024-01-30T06:22:04;13.20;;;5.50;;
70829;SDS011;58451;51.550;7.208;2024-01-30T06:23:36;13.90;;;5.60;;
70829;SDS011;58451;51.550;7.208;2024-01-30T06:25:11;14.30;;;5.80;;
70829;SDS011;58451;51.550;7.208;2024-01-30T06:26:43;13.10;;;5.70;;
70829;SDS011;58451;51.550;7.208;2024-01-30T06:28:16;15.40;;;5.40;;
70829;SDS011;58451;51.550;7.208;2024-01-30T06:29:48;14.50;;;5.00;;
70829;SDS011;58451;51.550;7.208;2024-01-30T06:31:20;11.60;;;5.10;;
70829;SDS011;58451;51.550;7.208;2024-01-30T06:32:54;13.80;;;5.40;;
70829;SDS011;58451;51.550;7.208;2024-01-30T06:34:26;13.00;;;5.90;;
70829;SDS011;58451;51.550;7.208;2024-01-30T06:35:58;13.00;;;5.50;;
70829;SDS011;58451;51.550;7.208;2024-01-30T06:37:30;12.60;;;5.20;;
70829;SDS011;58451;51.550;7.208;2024-01-30T06:39:03;17.40;;;5.90;;
70829;SDS011;58451;51.550;7.208;2024-01-30T06:41:02;13.20;;;5.50;;
70829;SDS011;58451;51.550;7.208;2024-01-30T06:42:34;12.80;;;5.40;;
70829;SDS011;58451;51.550;7.208;2024-01-30T06:44:06;13.20;;;5.50;;
70829;SDS011;58451;51.550;7.208;2024-01-30T06:45:39;11.80;;;5.20;;
70829;SDS011;58451;51.550;7.208;2024-01-30T06:47:12;14.80;;;5.10;;
70829;SDS011;58451;51.550;7.208;2024-01-30T06:48:44;14.50;;;5.60;;
70829;SDS011;58451;51.550;7.208;2024-01-30T06:50:16;13.70;;;5.70;;
70829;SDS011;58451;51.550;7.208;2024-01-30T06:51:48;13.50;;;5.30;;
70829;SDS011;58451;51.550;7.208;2024-01-30T06:53:20;13.10;;;5.40;;
70829;SDS011;58451;51.550;7.208;2024-01-30T06:54:52;13.20;;;5.40;;
70829;SDS011;58451;51.550;7.208;2024-01-30T06:56:24;11.90;;;5.40;;
70829;SDS011;58451;51.550;7.208;2024-01-30T06:57:56;13.10;;;5.20;;
70829;SDS011;58451;51.550;7.208;2024-01-30T06:59:28;13.70;;;5.30;;
70829;SDS011;58451;51.550;7.208;2024-01-30T07:01:00;14.50;;;5.40;;
70829;SDS011;58451;51.550;7.208;2024-01-30T07:02:32;14.40;;;5.30;;
70829;SDS011;58451;51.550;7.208;2024-01-30T07:04:04;14.10;;;5.20;;
70829;SDS011;58451;51.550;7.208;2024-01-30T07:05:36;13.00;;;5.10;;
70829;SDS011;58451;51.550;7.208;2024-01-30T07:07:08;12.30;;;5.20;;
70829;SDS011;58451;51.550;7.208;2024-01-30T07:08:44;13.10;;;4.90;;
70829;SDS011;58451;51.550;7.208;2024-01-30T07:10:16;11.20;;;4.60;;
70829;SDS011;58451;51.550;7.208;2024-01-30T07:11:48;13.00;;;4.80;;
70829;SDS011;58451;51.550;7.208;2024-01-30T07:13:19;11.80;;;5.10;;
70829;SDS011;58451;51.550;7.208;2024-01-30T07:14:52;11.60;;;4.70;;
70829;SDS011;58451;51.550;7.208;2024-01-30T07:16:26;12.90;;;5.20;;
70829;SDS011;58451;51.550;7.208;2024-01-30T07:17:58;11.50;;;4.80;;
70829;SDS011;58451;51.550;7.208;2024-01-30T07:19:30;12.70;;;5.70;;
70829;SDS011;58451;51.550;7.208;2024-01-30T07:21:03;11.70;;;4.90;;
70829;SDS011;58451;51.550;7.208;2024-01-30T07:22:35;12.40;;;5.40;;
70829;SDS011;58451;51.550;7.208;2024-01-30T07:24:07;13.00;;;4.80;;
70829;SDS011;58451;51.550;7.208;2024-01-30T07:25:40;12.10;;;4.80;;
70829;SDS011;58451;51.550;7.208;2024-01-30T07:27:14;11.20;;;4.60;;
70829;SDS011;58451;51.550;7.208;2024-01-30T07:28:46;10.50;;;4.10;;
70829;SDS011;58451;51.550;7.208;2024-01-30T07:30:19;12.40;;;5.00;;
70829;SDS011;58451;51.550;7.208;2024-01-30T07:31:51;14.00;;;5.30;;
70829;SDS011;58451;51.550;7.208;2024-01-30T07:33:23;11.60;;;4.90;;
70829;SDS011;58451;51.550;7.208;2024-01-30T07:34:55;11.00;;;4.80;;
70829;SDS011;58451;51.550;7.208;2024-01-30T07:36:39;12.70;;;4.80;;
70829;SDS011;58451;51.550;7.208;2024-01-30T07:38:11;13.20;;;5.20;;
70829;SDS011;58451;51.550;7.208;2024-01-30T07:39:42;11.50;;;5.10;;
70829;SDS011;58451;51.550;7.208;2024-01-30T07:41:14;10.70;;;4.70;;
70829;SDS011;58451;51.550;7.208;2024-01-30T07:42:48;12.10;;;5.90;;
70829;SDS011;58451;51.550;7.208;2024-01-30T07:44:20;11.90;;;4.80;;
70829;SDS011;58451;51.550;7.208;2024-01-30T07:45:52;12.80;;;5.00;;
70829;SDS011;58451;51.550;7.208;2024-01-30T07:47:24;12.00;;;5.10;;
70829;SDS011;58451;51.550;7.208;2024-01-30T07:48:56;11.00;;;4.80;;
70829;SDS011;58451;51.550;7.208;2024-01-30T07:50:28;11.00;;;5.20;;
70829;SDS011;58451;51.550;7.208;2024-01-30T07:52:00;13.50;;;4.90;;
70829;SDS011;58451;51.550;7.208;2024-01-30T07:53:32;11.00;;;5.10;;
70829;SDS011;58451;51.550;7.208;2024-01-30T07:55:04;13.20;;;5.30;;
70829;SDS011;58451;51.550;7.208;2024-01-30T07:56:39;10.50;;;4.90;;
70829;SDS011;58451;51.550;7.208;2024-01-30T07:58:12;12.60;;;4.90;;
70829;SDS011;58451;51.550;7.208;2024-01-30T07:59:44;13.70;;;5.60;;
70829;SDS011;58451;51.550;7.208;2024-01-30T08:01:17;12.50;;;5.30;;
70829;SDS011;58451;51.550;7.208;2024-01-30T08:02:49;11.10;;;5.20;;
70829;SDS011;58451;51.550;7.208;2024-01-30T08:04:20;13.60;;;5.20;;
70829;SDS011;58451;51.550;7.208;2024-01-30T08:05:53;12.70;;;5.30;;
70829;SDS011;58451;51.550;7.208;2024-01-30T08:07:25;12.00;;;5.30;;
70829;SDS011;58451;51.550;7.208;2024-01-30T08:08:57;11.80;;;5.50;;
70829;SDS011;58451;51.550;7.208;2024-01-30T08:10:30;11.30;;;5.40;;
70829;SDS011;58451;51.550;7.208;2024-01-30T08:12:03;14.40;;;5.60;;
70829;SDS011;58451;51.550;7.208;2024-01-30T08:13:36;12.80;;;5.50;;
70829;SDS011;58451;51.550;7.208;2024-01-30T08:15:08;11.60;;;4.90;;
70829;SDS011;58451;51.550;7.208;2024-01-30T08:16:40;12.40;;;5.10;;
70829;SDS011;58451;51.550;7.208;2024-01-30T08:18:12;11.00;;;4.90;;
70829;SDS011;58451;51.550;7.208;2024-01-30T08:19:44;11.10;;;4.60;;
70829;SDS011;58451;51.550;7.208;2024-01-30T08:21:16;12.30;;;4.60;;
70829;SDS011;58451;51.550;7.208;2024-01-30T08:22:48;10.90;;;4.90;;
70829;SDS011;58451;51.550;7.208;2024-01-30T08:24:20;13.30;;;4.80;;
70829;SDS011;58451;51.550;7.208;2024-01-30T08:25:52;10.90;;;4.70;;
70829;SDS011;58451;51.550;7.208;2024-01-30T08:27:23;11.60;;;4.60;;
70829;SDS011;58451;51.550;7.208;2024-01-30T08:28:55;11.20;;;5.10;;
70829;SDS011;58451;51.550;7.208;2024-01-30T08:30:27;12.60;;;5.30;;
70829;SDS011;58451;51.550;7.208;2024-01-30T08:31:59;14.90;;;5.40;;
70829;SDS011;58451;51.550;7.208;2024-01-30T08:33:32;12.10;;;4.90;;
70829;SDS011;58451;51.550;7.208;2024-01-30T08:35:04;10.70;;;4.70;;
70829;SDS011;58451;51.550;7.208;2024-01-30T08:36:36;11.60;;;5.40;;
70829;SDS011;58451;51.550;7.208;2024-01-30T08:38:08;12.40;;;5.00;;
70829;SDS011;58451;51.550;7.208;2024-01-30T08:39:40;11.20;;;4.30;;
70829;SDS011;58451;51.550;7.208;2024-01-30T08:41:12;10.80;;;4.70;;
70829;SDS011;58451;51.550;7.208;2024-01-30T08:42:43;12.70;;;5.40;;
70829;SDS011;58451;51.550;7.208;2024-01-30T08:44:16;11.70;;;5.10;;
70829;SDS011;58451;51.550;7.208;2024-01-30T08:45:49;9.30;;;4.50;;
70829;SDS011;58451;51.550;7.208;2024-01-30T08:47:20;10.80;;;4.60;;
70829;SDS011;58451;51.550;7.208;2024-01-30T08:48:52;12.10;;;4.70;;
70829;SDS011;58451;51.550;7.208;2024-01-30T08:50:25;12.70;;;5.30;;
70829;SDS011;58451;51.550;7.208;2024-01-30T08:51:57;13.60;;;7.30;;
70829;SDS011;58451;51.550;7.208;2024-01-30T08:53:29;10.60;;;4.50;;
70829;SDS011;58451;51.550;7.208;2024-01-30T08:55:01;12.10;;;4.70;;
70829;SDS011;58451;51.550;7.208;2024-01-30T08:56:33;10.40;;;4.70;;
70829;SDS011;58451;51.550;7.208;2024-01-30T08:58:05;10.30;;;4.40;;
70829;SDS011;58451;51.550;7.208;2024-01-30T08:59:37;13.40;;;4.70;;
70829;SDS011;58451;51.550;7.208;2024-01-30T09:01:09;11.40;;;4.60;;
70829;SDS011;58451;51.550;7.208;2024-01-30T09:02:44;11.00;;;4.60;;
70829;SDS011;58451;51.550;7.208;2024-01-30T09:04:16;12.60;;;4.80;;
70829;SDS011;58451;51.550;7.208;2024-01-30T09:05:48;11.20;;;4.70;;
70829;SDS011;58451;51.550;7.208;2024-01-30T09:07:20;11.80;;;4.90;;
70829;SDS011;58451;51.550;7.208;2024-01-30T09:08:52;11.00;;;4.00;;